sensor_id;sensor_type;location;lat;lon;timestamp;P1;durP1;ratioP1;P2;durP2;ratioP2
16826;SDS011;8530;49.540;8.576;2023-07-22T00:01:30;3.40;;;3.10;;
16826;SDS011;8530;49.540;8.576;2023-07-22T00:03:57;3.23;;;2.53;;
16826;SDS011;8530;49.540;8.576;2023-07-22T00:06:24;5.00;;;2.60;;
16826;SDS011;8530;49.540;8.576;2023-07-22T00:08:50;4.47;;;3.03;;
16826;SDS011;8530;49.540;8.576;2023-07-22T00:11:18;5.10;;;3.00;;
16826;SDS011;8530;49.540;8.576;2023-07-22T00:13:45;4.33;;;3.30;;
16826;SDS011;8530;49.540;8.576;2023-07-22T00:16:12;4.87;;;2.67;;
16826;SDS011;8530;49.540;8.576;2023-07-22T00:18:40;4.07;;;3.27;;
16826;SDS011;8530;49.540;8.576;2023-07-22T00:21:07;4.00;;;3.00;;
16826;SDS011;8530;49.540;8.576;2023-07-22T00:23:34;5.40;;;2.80;;
16826;SDS011;8530;49.540;8.576;2023-07-22T00:26:01;7.97;;;2.80;;
16826;SDS011;8530;49.540;8.576;2023-07-22T00:28:27;3.43;;;3.13;;
16826;SDS011;8530;49.540;8.576;2023-07-22T00:30:55;6.27;;;2.50;;
16826;SDS011;8530;49.540;8.576;2023-07-22T00:33:24;5.43;;;2.63;;
16826;SDS011;8530;49.540;8.576;2023-07-22T00:35:53;4.53;;;3.23;;
16826;SDS011;8530;49.540;8.576;2023-07-22T00:38:20;4.23;;;2.80;;
16826;SDS011;8530;49.540;8.576;2023-07-22T00:40:47;5.47;;;3.60;;
16826;SDS011;8530;49.540;8.576;2023-07-22T00:43:13;7.73;;;2.93;;
16826;SDS011;8530;49.540;8.576;2023-07-22T00:45:41;4.00;;;2.90;;
16826;SDS011;8530;49.540;8.576;2023-07-22T00:48:08;4.67;;;3.30;;
16826;SDS011;8530;49.540;8.576;2023-07-22T00:50:35;4.57;;;3.77;;
16826;SDS011;8530;49.540;8.576;2023-07-22T00:53:04;3.20;;;2.83;;
16826;SDS011;8530;49.540;8.576;2023-07-22T00:55:30;9.43;;;2.97;;
16826;SDS011;8530;49.540;8.576;2023-07-22T00:57:59;4.00;;;3.07;;
16826;SDS011;8530;49.540;8.576;2023-07-22T01:00:26;4.40;;;3.20;;
16826;SDS011;8530;49.540;8.576;2023-07-22T01:02:53;6.00;;;3.47;;
16826;SDS011;8530;49.540;8.576;2023-07-22T01:05:19;3.93;;;3.13;;
16826;SDS011;8530;49.540;8.576;2023-07-22T01:07:46;5.20;;;3.63;;
16826;SDS011;8530;49.540;8.576;2023-07-22T01:10:14;5.10;;;3.60;;
16826;SDS011;8530;49.540;8.576;2023-07-22T01:12:41;3.40;;;3.10;;
16826;SDS011;8530;49.540;8.576;2023-07-22T01:15:09;5.40;;;3.63;;
16826;SDS011;8530;49.540;8.576;2023-07-22T01:17:36;4.27;;;3.27;;
16826;SDS011;8530;49.540;8.576;2023-07-22T01:20:05;3.97;;;3.53;;
16826;SDS011;8530;49.540;8.576;2023-07-22T01:22:34;3.43;;;3.00;;
16826;SDS011;8530;49.540;8.576;2023-07-22T01:25:03;3.30;;;2.90;;
16826;SDS011;8530;49.540;8.576;2023-07-22T01:27:32;4.60;;;3.40;;
16826;SDS011;8530;49.540;8.576;2023-07-22T01:29:59;4.00;;;3.20;;
16826;SDS011;8530;49.540;8.576;2023-07-22T01:32:33;6.47;;;4.37;;
16826;SDS011;8530;49.540;8.576;2023-07-22T01:35:00;3.57;;;3.27;;
16826;SDS011;8530;49.540;8.576;2023-07-22T01:37:27;5.00;;;3.13;;
16826;SDS011;8530;49.540;8.576;2023-07-22T01:39:53;8.57;;;3.37;;
16826;SDS011;8530;49.540;8.576;2023-07-22T01:42:23;4.07;;;3.67;;
16826;SDS011;8530;49.540;8.576;2023-07-22T01:44:50;5.33;;;3.40;;
16826;SDS011;8530;49.540;8.576;2023-07-22T01:47:16;4.80;;;3.70;;
16826;SDS011;8530;49.540;8.576;2023-07-22T01:49:43;4.33;;;3.93;;
16826;SDS011;8530;49.540;8.576;2023-07-22T01:52:10;5.03;;;3.80;;
16826;SDS011;8530;49.540;8.576;2023-07-22T01:54:37;5.27;;;3.20;;
16826;SDS011;8530;49.540;8.576;2023-07-22T01:57:04;3.53;;;3.20;;
16826;SDS011;8530;49.540;8.576;2023-07-22T01:59:32;5.90;;;3.30;;
16826;SDS011;8530;49.540;8.576;2023-07-22T02:01:59;4.83;;;3.57;;
16826;SDS011;8530;49.540;8.576;2023-07-22T02:04:26;3.20;;;2.90;;
16826;SDS011;8530;49.540;8.576;2023-07-22T02:06:52;5.00;;;3.57;;
16826;SDS011;8530;49.540;8.576;2023-07-22T02:09:19;6.20;;;3.73;;
16826;SDS011;8530;49.540;8.576;2023-07-22T02:11:46;7.63;;;3.73;;
16826;SDS011;8530;49.540;8.576;2023-07-22T02:14:13;12.40;;;4.33;;
16826;SDS011;8530;49.540;8.576;2023-07-22T02:16:41;4.67;;;3.77;;
16826;SDS011;8530;49.540;8.576;2023-07-22T02:19:08;4.33;;;3.50;;
16826;SDS011;8530;49.540;8.576;2023-07-22T02:21:34;3.97;;;3.50;;
16826;SDS011;8530;49.540;8.576;2023-07-22T02:24:01;5.20;;;3.40;;
16826;SDS011;8530;49.540;8.576;2023-07-22T02:26:28;5.33;;;3.30;;
16826;SDS011;8530;49.540;8.576;2023-07-22T02:28:54;4.70;;;3.50;;
16826;SDS011;8530;49.540;8.576;2023-07-22T02:31:21;8.50;;;4.67;;
16826;SDS011;8530;49.540;8.576;2023-07-22T02:33:49;4.27;;;3.50;;
16826;SDS011;8530;49.540;8.576;2023-07-22T02:36:16;5.73;;;3.90;;
16826;SDS011;8530;49.540;8.576;2023-07-22T02:38:43;4.90;;;3.53;;
16826;SDS011;8530;49.540;8.576;2023-07-22T02:41:09;4.70;;;4.20;;
16826;SDS011;8530;49.540;8.576;2023-07-22T02:43:36;5.67;;;4.00;;
16826;SDS011;8530;49.540;8.576;2023-07-22T02:46:05;8.53;;;4.73;;
16826;SDS011;8530;49.540;8.576;2023-07-22T02:48:33;10.80;;;3.90;;
16826;SDS011;8530;49.540;8.576;2023-07-22T02:51:04;4.73;;;4.23;;
16826;SDS011;8530;49.540;8.576;2023-07-22T02:53:32;5.27;;;4.33;;
16826;SDS011;8530;49.540;8.576;2023-07-22T02:55:58;9.80;;;4.97;;
16826;SDS011;8530;49.540;8.576;2023-07-22T02:58:26;6.00;;;5.33;;
16826;SDS011;8530;49.540;8.576;2023-07-22T03:00:52;5.93;;;5.33;;
16826;SDS011;8530;49.540;8.576;2023-07-22T03:03:19;5.53;;;4.90;;
16826;SDS011;8530;49.540;8.576;2023-07-22T03:05:46;5.67;;;5.07;;
16826;SDS011;8530;49.540;8.576;2023-07-22T03:08:14;6.50;;;5.90;;
16826;SDS011;8530;49.540;8.576;2023-07-22T03:10:42;5.90;;;5.30;;
16826;SDS011;8530;49.540;8.576;2023-07-22T03:13:13;7.77;;;4.93;;
16826;SDS011;8530;49.540;8.576;2023-07-22T03:15:40;5.67;;;4.97;;
16826;SDS011;8530;49.540;8.576;2023-07-22T03:18:06;7.90;;;6.00;;
16826;SDS011;8530;49.540;8.576;2023-07-22T03:20:35;6.67;;;5.57;;
16826;SDS011;8530;49.540;8.576;2023-07-22T03:23:01;5.97;;;4.70;;
16826;SDS011;8530;49.540;8.576;2023-07-22T03:25:29;5.93;;;5.33;;
16826;SDS011;8530;49.540;8.576;2023-07-22T03:27:56;5.80;;;4.87;;
16826;SDS011;8530;49.540;8.576;2023-07-22T03:30:23;5.63;;;5.00;;
16826;SDS011;8530;49.540;8.576;2023-07-22T03:32:50;7.23;;;5.93;;
16826;SDS011;8530;49.540;8.576;2023-07-22T03:35:16;10.97;;;6.07;;
16826;SDS011;8530;49.540;8.576;2023-07-22T03:37:43;7.63;;;5.27;;
16826;SDS011;8530;49.540;8.576;2023-07-22T03:40:10;13.30;;;5.60;;
16826;SDS011;8530;49.540;8.576;2023-07-22T03:42:44;5.43;;;4.90;;
16826;SDS011;8530;49.540;8.576;2023-07-22T03:45:11;6.50;;;5.10;;
16826;SDS011;8530;49.540;8.576;2023-07-22T03:47:38;6.57;;;5.70;;
16826;SDS011;8530;49.540;8.576;2023-07-22T03:50:05;6.13;;;5.43;;
16826;SDS011;8530;49.540;8.576;2023-07-22T03:52:33;4.87;;;4.40;;
16826;SDS011;8530;49.540;8.576;2023-07-22T03:54:59;10.13;;;5.53;;
16826;SDS011;8530;49.540;8.576;2023-07-22T03:57:26;10.30;;;5.80;;
16826;SDS011;8530;49.540;8.576;2023-07-22T03:59:55;5.00;;;4.57;;
16826;SDS011;8530;49.540;8.576;2023-07-22T04:02:22;6.77;;;5.37;;
16826;SDS011;8530;49.540;8.576;2023-07-22T04:04:49;6.17;;;5.57;;
16826;SDS011;8530;49.540;8.576;2023-07-22T04:07:16;7.43;;;5.50;;
16826;SDS011;8530;49.540;8.576;2023-07-22T04:09:43;8.97;;;5.33;;
16826;SDS011;8530;49.540;8.576;2023-07-22T04:12:10;6.37;;;4.73;;
16826;SDS011;8530;49.540;8.576;2023-07-22T04:14:37;5.43;;;4.63;;
16826;SDS011;8530;49.540;8.576;2023-07-22T04:17:06;5.77;;;5.00;;
16826;SDS011;8530;49.540;8.576;2023-07-22T04:19:33;6.57;;;5.13;;
16826;SDS011;8530;49.540;8.576;2023-07-22T04:22:00;8.33;;;5.63;;
16826;SDS011;8530;49.540;8.576;2023-07-22T04:24:29;6.50;;;5.90;;
16826;SDS011;8530;49.540;8.576;2023-07-22T04:26:56;6.30;;;5.70;;
16826;SDS011;8530;49.540;8.576;2023-07-22T04:29:22;6.23;;;4.93;;
16826;SDS011;8530;49.540;8.576;2023-07-22T04:31:49;5.93;;;5.40;;
16826;SDS011;8530;49.540;8.576;2023-07-22T04:34:17;8.40;;;5.87;;
16826;SDS011;8530;49.540;8.576;2023-07-22T04:36:44;5.70;;;5.20;;
16826;SDS011;8530;49.540;8.576;2023-07-22T04:39:11;7.00;;;5.00;;
16826;SDS011;8530;49.540;8.576;2023-07-22T04:41:38;5.90;;;5.30;;
16826;SDS011;8530;49.540;8.576;2023-07-22T04:44:05;6.70;;;5.20;;
16826;SDS011;8530;49.540;8.576;2023-07-22T04:46:31;7.90;;;5.87;;
16826;SDS011;8530;49.540;8.576;2023-07-22T04:48:58;9.43;;;4.77;;
16826;SDS011;8530;49.540;8.576;2023-07-22T04:51:26;9.70;;;6.00;;
16826;SDS011;8530;49.540;8.576;2023-07-22T04:53:53;7.63;;;5.60;;
16826;SDS011;8530;49.540;8.576;2023-07-22T04:56:19;7.00;;;5.10;;
16826;SDS011;8530;49.540;8.576;2023-07-22T04:58:46;6.40;;;5.80;;
16826;SDS011;8530;49.540;8.576;2023-07-22T05:01:14;9.13;;;5.53;;
16826;SDS011;8530;49.540;8.576;2023-07-22T05:03:41;10.00;;;6.23;;
16826;SDS011;8530;49.540;8.576;2023-07-22T05:06:08;7.00;;;5.60;;
16826;SDS011;8530;49.540;8.576;2023-07-22T05:08:36;6.77;;;6.07;;
16826;SDS011;8530;49.540;8.576;2023-07-22T05:11:03;7.03;;;5.03;;
16826;SDS011;8530;49.540;8.576;2023-07-22T05:13:30;4.97;;;4.13;;
16826;SDS011;8530;49.540;8.576;2023-07-22T05:15:57;6.87;;;4.57;;
16826;SDS011;8530;49.540;8.576;2023-07-22T05:18:24;6.50;;;5.83;;
16826;SDS011;8530;49.540;8.576;2023-07-22T05:20:50;8.03;;;5.20;;
16826;SDS011;8530;49.540;8.576;2023-07-22T05:23:17;6.13;;;5.60;;
16826;SDS011;8530;49.540;8.576;2023-07-22T05:25:49;5.90;;;5.30;;
16826;SDS011;8530;49.540;8.576;2023-07-22T05:28:17;9.57;;;5.50;;
16826;SDS011;8530;49.540;8.576;2023-07-22T05:30:43;5.80;;;4.77;;
16826;SDS011;8530;49.540;8.576;2023-07-22T05:33:10;5.73;;;5.03;;
16826;SDS011;8530;49.540;8.576;2023-07-22T05:35:37;5.17;;;4.77;;
16826;SDS011;8530;49.540;8.576;2023-07-22T05:38:04;5.50;;;4.87;;
16826;SDS011;8530;49.540;8.576;2023-07-22T05:40:31;6.50;;;4.73;;
16826;SDS011;8530;49.540;8.576;2023-07-22T05:42:59;5.70;;;4.60;;
16826;SDS011;8530;49.540;8.576;2023-07-22T05:45:26;5.70;;;5.10;;
16826;SDS011;8530;49.540;8.576;2023-07-22T05:47:52;5.10;;;4.10;;
16826;SDS011;8530;49.540;8.576;2023-07-22T05:50:19;5.60;;;4.50;;
16826;SDS011;8530;49.540;8.576;2023-07-22T05:52:46;8.60;;;5.10;;
16826;SDS011;8530;49.540;8.576;2023-07-22T05:55:13;5.53;;;4.20;;
16826;SDS011;8530;49.540;8.576;2023-07-22T05:57:39;4.90;;;4.40;;
16826;SDS011;8530;49.540;8.576;2023-07-22T06:00:09;6.10;;;4.80;;
16826;SDS011;8530;49.540;8.576;2023-07-22T06:02:38;6.73;;;4.30;;
16826;SDS011;8530;49.540;8.576;2023-07-22T06:05:05;6.00;;;3.67;;
16826;SDS011;8530;49.540;8.576;2023-07-22T06:07:32;7.93;;;4.27;;
16826;SDS011;8530;49.540;8.576;2023-07-22T06:09:58;9.97;;;3.30;;
16826;SDS011;8530;49.540;8.576;2023-07-22T06:12:25;5.10;;;2.90;;
16826;SDS011;8530;49.540;8.576;2023-07-22T06:14:52;4.07;;;3.00;;
16826;SDS011;8530;49.540;8.576;2023-07-22T06:17:20;4.53;;;2.83;;
16826;SDS011;8530;49.540;8.576;2023-07-22T06:19:47;5.17;;;3.93;;
16826;SDS011;8530;49.540;8.576;2023-07-22T06:22:13;6.20;;;3.70;;
16826;SDS011;8530;49.540;8.576;2023-07-22T06:24:40;4.00;;;3.07;;
16826;SDS011;8530;49.540;8.576;2023-07-22T06:27:07;4.93;;;3.17;;
16826;SDS011;8530;49.540;8.576;2023-07-22T06:29:37;3.80;;;3.00;;
16826;SDS011;8530;49.540;8.576;2023-07-22T06:32:05;5.00;;;3.20;;
16826;SDS011;8530;49.540;8.576;2023-07-22T06:34:33;14.80;;;4.00;;
16826;SDS011;8530;49.540;8.576;2023-07-22T06:37:00;6.23;;;3.67;;
16826;SDS011;8530;49.540;8.576;2023-07-22T06:39:26;4.50;;;3.40;;
16826;SDS011;8530;49.540;8.576;2023-07-22T06:41:53;4.90;;;3.50;;
16826;SDS011;8530;49.540;8.576;2023-07-22T06:44:20;5.13;;;3.03;;
16826;SDS011;8530;49.540;8.576;2023-07-22T06:46:47;5.03;;;2.87;;
16826;SDS011;8530;49.540;8.576;2023-07-22T06:49:13;3.70;;;3.17;;
16826;SDS011;8530;49.540;8.576;2023-07-22T06:51:41;5.13;;;3.07;;
16826;SDS011;8530;49.540;8.576;2023-07-22T06:54:08;6.57;;;3.60;;
16826;SDS011;8530;49.540;8.576;2023-07-22T06:56:35;6.20;;;3.30;;
16826;SDS011;8530;49.540;8.576;2023-07-22T06:59:01;4.40;;;3.13;;
16826;SDS011;8530;49.540;8.576;2023-07-22T07:01:28;5.90;;;3.23;;
16826;SDS011;8530;49.540;8.576;2023-07-22T07:03:55;4.17;;;2.80;;
16826;SDS011;8530;49.540;8.576;2023-07-22T07:06:22;8.67;;;3.27;;
16826;SDS011;8530;49.540;8.576;2023-07-22T07:08:50;6.80;;;3.93;;
16826;SDS011;8530;49.540;8.576;2023-07-22T07:11:17;5.80;;;3.20;;
16826;SDS011;8530;49.540;8.576;2023-07-22T07:13:44;5.63;;;3.37;;
16826;SDS011;8530;49.540;8.576;2023-07-22T07:16:20;5.57;;;3.50;;
16826;SDS011;8530;49.540;8.576;2023-07-22T07:18:48;5.97;;;3.63;;
16826;SDS011;8530;49.540;8.576;2023-07-22T07:21:15;4.17;;;3.70;;
16826;SDS011;8530;49.540;8.576;2023-07-22T07:23:41;4.97;;;3.33;;
16826;SDS011;8530;49.540;8.576;2023-07-22T07:26:09;5.07;;;3.57;;
16826;SDS011;8530;49.540;8.576;2023-07-22T07:28:36;5.43;;;3.60;;
16826;SDS011;8530;49.540;8.576;2023-07-22T07:31:03;6.80;;;4.10;;
16826;SDS011;8530;49.540;8.576;2023-07-22T07:33:30;5.73;;;4.10;;
16826;SDS011;8530;49.540;8.576;2023-07-22T07:35:57;7.33;;;3.77;;
16826;SDS011;8530;49.540;8.576;2023-07-22T07:38:24;6.67;;;3.57;;
16826;SDS011;8530;49.540;8.576;2023-07-22T07:40:51;6.80;;;3.97;;
16826;SDS011;8530;49.540;8.576;2023-07-22T07:43:20;5.73;;;3.73;;
16826;SDS011;8530;49.540;8.576;2023-07-22T07:45:46;7.70;;;4.47;;
16826;SDS011;8530;49.540;8.576;2023-07-22T07:48:13;5.03;;;3.80;;
16826;SDS011;8530;49.540;8.576;2023-07-22T07:50:40;7.10;;;4.30;;
16826;SDS011;8530;49.540;8.576;2023-07-22T07:53:06;4.43;;;3.23;;
16826;SDS011;8530;49.540;8.576;2023-07-22T07:55:33;9.50;;;3.63;;
16826;SDS011;8530;49.540;8.576;2023-07-22T07:58:00;4.20;;;3.00;;
16826;SDS011;8530;49.540;8.576;2023-07-22T08:00:28;8.93;;;3.60;;
16826;SDS011;8530;49.540;8.576;2023-07-22T08:02:55;7.47;;;3.70;;
16826;SDS011;8530;49.540;8.576;2023-07-22T08:05:21;7.10;;;3.70;;
16826;SDS011;8530;49.540;8.576;2023-07-22T08:07:48;3.60;;;3.03;;
16826;SDS011;8530;49.540;8.576;2023-07-22T08:10:15;6.07;;;3.47;;
16826;SDS011;8530;49.540;8.576;2023-07-22T08:12:43;6.63;;;3.67;;
16826;SDS011;8530;49.540;8.576;2023-07-22T08:15:10;8.10;;;3.03;;
16826;SDS011;8530;49.540;8.576;2023-07-22T08:17:38;4.20;;;2.53;;
16826;SDS011;8530;49.540;8.576;2023-07-22T08:20:05;8.67;;;4.20;;
16826;SDS011;8530;49.540;8.576;2023-07-22T08:22:33;6.07;;;3.30;;
16826;SDS011;8530;49.540;8.576;2023-07-22T08:25:01;7.57;;;4.77;;
16826;SDS011;8530;49.540;8.576;2023-07-22T08:27:28;4.87;;;3.20;;
16826;SDS011;8530;49.540;8.576;2023-07-22T08:29:55;10.33;;;3.60;;
16826;SDS011;8530;49.540;8.576;2023-07-22T08:32:22;3.80;;;2.80;;
16826;SDS011;8530;49.540;8.576;2023-07-22T08:34:50;6.47;;;3.10;;
16826;SDS011;8530;49.540;8.576;2023-07-22T08:37:17;4.87;;;2.90;;
16826;SDS011;8530;49.540;8.576;2023-07-22T08:39:44;4.03;;;3.50;;
16826;SDS011;8530;49.540;8.576;2023-07-22T08:42:11;5.20;;;3.20;;
16826;SDS011;8530;49.540;8.576;2023-07-22T08:44:40;5.00;;;3.37;;
16826;SDS011;8530;49.540;8.576;2023-07-22T08:47:10;6.93;;;3.13;;
16826;SDS011;8530;49.540;8.576;2023-07-22T08:49:40;6.50;;;2.73;;
16826;SDS011;8530;49.540;8.576;2023-07-22T08:52:11;6.23;;;3.37;;
16826;SDS011;8530;49.540;8.576;2023-07-22T08:54:40;4.97;;;2.73;;
16826;SDS011;8530;49.540;8.576;2023-07-22T08:57:07;3.70;;;3.07;;
16826;SDS011;8530;49.540;8.576;2023-07-22T08:59:36;3.87;;;2.20;;
16826;SDS011;8530;49.540;8.576;2023-07-22T09:02:03;4.43;;;3.23;;
16826;SDS011;8530;49.540;8.576;2023-07-22T09:04:31;4.00;;;2.60;;
16826;SDS011;8530;49.540;8.576;2023-07-22T09:06:58;4.10;;;3.00;;
16826;SDS011;8530;49.540;8.576;2023-07-22T09:09:27;4.53;;;3.63;;
16826;SDS011;8530;49.540;8.576;2023-07-22T09:11:54;4.90;;;2.90;;
16826;SDS011;8530;49.540;8.576;2023-07-22T09:14:21;4.77;;;3.30;;
16826;SDS011;8530;49.540;8.576;2023-07-22T09:16:49;7.90;;;2.90;;
16826;SDS011;8530;49.540;8.576;2023-07-22T09:19:16;4.47;;;2.67;;
16826;SDS011;8530;49.540;8.576;2023-07-22T09:21:44;4.87;;;3.40;;
16826;SDS011;8530;49.540;8.576;2023-07-22T09:24:20;4.90;;;2.57;;
16826;SDS011;8530;49.540;8.576;2023-07-22T09:26:49;3.80;;;2.53;;
16826;SDS011;8530;49.540;8.576;2023-07-22T09:29:16;3.40;;;2.50;;
16826;SDS011;8530;49.540;8.576;2023-07-22T09:31:51;4.43;;;3.10;;
16826;SDS011;8530;49.540;8.576;2023-07-22T09:34:18;4.17;;;3.03;;
16826;SDS011;8530;49.540;8.576;2023-07-22T09:36:50;4.63;;;3.03;;
16826;SDS011;8530;49.540;8.576;2023-07-22T09:39:17;4.83;;;2.77;;
16826;SDS011;8530;49.540;8.576;2023-07-22T09:41:44;5.30;;;2.80;;
16826;SDS011;8530;49.540;8.576;2023-07-22T09:44:12;5.43;;;3.10;;
16826;SDS011;8530;49.540;8.576;2023-07-22T09:46:39;4.20;;;2.77;;
16826;SDS011;8530;49.540;8.576;2023-07-22T09:49:07;4.07;;;2.40;;
16826;SDS011;8530;49.540;8.576;2023-07-22T09:51:35;4.60;;;3.13;;
16826;SDS011;8530;49.540;8.576;2023-07-22T09:54:03;3.13;;;2.33;;
16826;SDS011;8530;49.540;8.576;2023-07-22T09:56:31;6.43;;;2.77;;
16826;SDS011;8530;49.540;8.576;2023-07-22T09:59:08;2.53;;;2.03;;
16826;SDS011;8530;49.540;8.576;2023-07-22T10:01:39;3.90;;;2.67;;
16826;SDS011;8530;49.540;8.576;2023-07-22T10:04:07;5.10;;;2.80;;
16826;SDS011;8530;49.540;8.576;2023-07-22T10:06:36;4.60;;;2.30;;
16826;SDS011;8530;49.540;8.576;2023-07-22T10:09:05;3.37;;;2.40;;
16826;SDS011;8530;49.540;8.576;2023-07-22T10:11:36;5.33;;;3.47;;
16826;SDS011;8530;49.540;8.576;2023-07-22T10:14:05;3.60;;;3.03;;
16826;SDS011;8530;49.540;8.576;2023-07-22T10:16:32;5.70;;;2.70;;
16826;SDS011;8530;49.540;8.576;2023-07-22T10:19:00;3.73;;;2.80;;
16826;SDS011;8530;49.540;8.576;2023-07-22T10:21:28;3.63;;;2.50;;
16826;SDS011;8530;49.540;8.576;2023-07-22T10:23:55;5.70;;;2.13;;
16826;SDS011;8530;49.540;8.576;2023-07-22T10:26:22;5.10;;;2.10;;
16826;SDS011;8530;49.540;8.576;2023-07-22T10:28:49;2.80;;;2.50;;
16826;SDS011;8530;49.540;8.576;2023-07-22T10:31:16;4.83;;;2.80;;
16826;SDS011;8530;49.540;8.576;2023-07-22T10:33:44;10.10;;;2.73;;
16826;SDS011;8530;49.540;8.576;2023-07-22T10:36:14;5.00;;;2.63;;
16826;SDS011;8530;49.540;8.576;2023-07-22T10:38:42;4.03;;;3.10;;
16826;SDS011;8530;49.540;8.576;2023-07-22T10:41:12;2.90;;;2.60;;
16826;SDS011;8530;49.540;8.576;2023-07-22T10:43:41;4.67;;;2.90;;
16826;SDS011;8530;49.540;8.576;2023-07-22T10:46:19;4.30;;;2.60;;
16826;SDS011;8530;49.540;8.576;2023-07-22T10:49:01;6.10;;;2.60;;
16826;SDS011;8530;49.540;8.576;2023-07-22T10:51:36;2.90;;;2.27;;
16826;SDS011;8530;49.540;8.576;2023-07-22T10:54:03;5.90;;;2.70;;
16826;SDS011;8530;49.540;8.576;2023-07-22T10:56:37;7.30;;;2.40;;
16826;SDS011;8530;49.540;8.576;2023-07-22T10:59:04;3.20;;;2.60;;
16826;SDS011;8530;49.540;8.576;2023-07-22T11:01:31;3.93;;;2.87;;
16826;SDS011;8530;49.540;8.576;2023-07-22T11:06:57;4.53;;;2.47;;
16826;SDS011;8530;49.540;8.576;2023-07-22T11:09:38;5.77;;;3.20;;
16826;SDS011;8530;49.540;8.576;2023-07-22T11:12:07;5.00;;;3.00;;
16826;SDS011;8530;49.540;8.576;2023-07-22T11:14:37;3.67;;;2.77;;
16826;SDS011;8530;49.540;8.576;2023-07-22T11:17:05;4.43;;;3.00;;
16826;SDS011;8530;49.540;8.576;2023-07-22T11:19:34;5.93;;;2.97;;
16826;SDS011;8530;49.540;8.576;2023-07-22T11:22:02;3.97;;;2.40;;
16826;SDS011;8530;49.540;8.576;2023-07-22T11:24:31;3.13;;;2.00;;
16826;SDS011;8530;49.540;8.576;2023-07-22T11:26:59;5.10;;;2.60;;
16826;SDS011;8530;49.540;8.576;2023-07-22T11:29:28;3.03;;;1.80;;
16826;SDS011;8530;49.540;8.576;2023-07-22T11:31:55;6.53;;;2.13;;
16826;SDS011;8530;49.540;8.576;2023-07-22T11:34:22;8.03;;;3.30;;
16826;SDS011;8530;49.540;8.576;2023-07-22T11:36:51;5.13;;;2.67;;
16826;SDS011;8530;49.540;8.576;2023-07-22T11:39:21;3.70;;;2.20;;
16826;SDS011;8530;49.540;8.576;2023-07-22T11:41:49;3.13;;;2.30;;
16826;SDS011;8530;49.540;8.576;2023-07-22T11:44:19;4.47;;;2.40;;
16826;SDS011;8530;49.540;8.576;2023-07-22T11:46:47;3.13;;;2.03;;
16826;SDS011;8530;49.540;8.576;2023-07-22T11:49:25;4.67;;;2.47;;
16826;SDS011;8530;49.540;8.576;2023-07-22T11:51:56;3.53;;;2.37;;
16826;SDS011;8530;49.540;8.576;2023-07-22T11:54:26;4.13;;;2.70;;
16826;SDS011;8530;49.540;8.576;2023-07-22T11:56:54;3.73;;;2.70;;
16826;SDS011;8530;49.540;8.576;2023-07-22T11:59:34;3.03;;;2.67;;
16826;SDS011;8530;49.540;8.576;2023-07-22T12:02:01;3.07;;;2.40;;
16826;SDS011;8530;49.540;8.576;2023-07-22T12:04:30;3.43;;;2.23;;
16826;SDS011;8530;49.540;8.576;2023-07-22T12:06:57;3.53;;;2.23;;
16826;SDS011;8530;49.540;8.576;2023-07-22T12:09:24;5.27;;;3.30;;
16826;SDS011;8530;49.540;8.576;2023-07-22T12:11:56;4.13;;;2.80;;
16826;SDS011;8530;49.540;8.576;2023-07-22T12:14:24;3.87;;;2.53;;
16826;SDS011;8530;49.540;8.576;2023-07-22T12:16:58;7.97;;;2.70;;
16826;SDS011;8530;49.540;8.576;2023-07-22T12:19:26;4.90;;;2.27;;
16826;SDS011;8530;49.540;8.576;2023-07-22T12:21:54;3.43;;;2.70;;
16826;SDS011;8530;49.540;8.576;2023-07-22T12:24:20;3.87;;;2.60;;
16826;SDS011;8530;49.540;8.576;2023-07-22T12:26:47;4.03;;;2.63;;
16826;SDS011;8530;49.540;8.576;2023-07-22T12:29:15;3.67;;;2.80;;
16826;SDS011;8530;49.540;8.576;2023-07-22T12:31:42;4.77;;;2.60;;
16826;SDS011;8530;49.540;8.576;2023-07-22T12:34:09;3.67;;;2.47;;
16826;SDS011;8530;49.540;8.576;2023-07-22T12:36:36;4.50;;;2.70;;
16826;SDS011;8530;49.540;8.576;2023-07-22T12:39:02;4.83;;;2.80;;
16826;SDS011;8530;49.540;8.576;2023-07-22T12:41:29;3.10;;;2.30;;
16826;SDS011;8530;49.540;8.576;2023-07-22T12:43:56;8.43;;;3.30;;
16826;SDS011;8530;49.540;8.576;2023-07-22T12:46:24;7.03;;;2.80;;
16826;SDS011;8530;49.540;8.576;2023-07-22T12:48:51;2.67;;;2.10;;
16826;SDS011;8530;49.540;8.576;2023-07-22T12:51:18;4.77;;;2.60;;
16826;SDS011;8530;49.540;8.576;2023-07-22T12:53:44;4.67;;;2.50;;
16826;SDS011;8530;49.540;8.576;2023-07-22T12:56:11;4.80;;;2.17;;
16826;SDS011;8530;49.540;8.576;2023-07-22T12:58:38;3.63;;;2.20;;
16826;SDS011;8530;49.540;8.576;2023-07-22T13:01:04;3.97;;;2.60;;
16826;SDS011;8530;49.540;8.576;2023-07-22T13:03:34;3.90;;;3.10;;
16826;SDS011;8530;49.540;8.576;2023-07-22T13:06:00;3.90;;;2.87;;
16826;SDS011;8530;49.540;8.576;2023-07-22T13:08:27;4.27;;;2.33;;
16826;SDS011;8530;49.540;8.576;2023-07-22T13:10:54;13.47;;;2.63;;
16826;SDS011;8530;49.540;8.576;2023-07-22T13:13:21;4.20;;;2.57;;
16826;SDS011;8530;49.540;8.576;2023-07-22T13:15:47;4.90;;;3.00;;
16826;SDS011;8530;49.540;8.576;2023-07-22T13:18:14;3.60;;;2.60;;
16826;SDS011;8530;49.540;8.576;2023-07-22T13:20:43;4.80;;;3.07;;
16826;SDS011;8530;49.540;8.576;2023-07-22T13:23:09;5.70;;;2.67;;
16826;SDS011;8530;49.540;8.576;2023-07-22T13:25:36;5.47;;;2.63;;
16826;SDS011;8530;49.540;8.576;2023-07-22T13:28:03;3.43;;;2.57;;
16826;SDS011;8530;49.540;8.576;2023-07-22T13:30:30;6.23;;;2.70;;
16826;SDS011;8530;49.540;8.576;2023-07-22T13:32:56;9.40;;;3.03;;
16826;SDS011;8530;49.540;8.576;2023-07-22T13:35:23;4.83;;;2.97;;
16826;SDS011;8530;49.540;8.576;2023-07-22T13:37:51;4.53;;;3.07;;
16826;SDS011;8530;49.540;8.576;2023-07-22T13:40:18;9.37;;;3.20;;
16826;SDS011;8530;49.540;8.576;2023-07-22T13:42:45;4.40;;;2.77;;
16826;SDS011;8530;49.540;8.576;2023-07-22T13:45:11;4.20;;;2.67;;
16826;SDS011;8530;49.540;8.576;2023-07-22T13:47:38;4.63;;;3.00;;
16826;SDS011;8530;49.540;8.576;2023-07-22T13:50:05;3.70;;;2.87;;
16826;SDS011;8530;49.540;8.576;2023-07-22T13:52:32;3.90;;;2.80;;
16826;SDS011;8530;49.540;8.576;2023-07-22T13:55:00;4.20;;;3.10;;
16826;SDS011;8530;49.540;8.576;2023-07-22T13:57:28;7.33;;;3.30;;
16826;SDS011;8530;49.540;8.576;2023-07-22T13:59:54;5.27;;;3.10;;
16826;SDS011;8530;49.540;8.576;2023-07-22T14:02:21;3.87;;;2.77;;
16826;SDS011;8530;49.540;8.576;2023-07-22T14:04:48;4.20;;;3.03;;
16826;SDS011;8530;49.540;8.576;2023-07-22T14:07:15;3.90;;;2.67;;
16826;SDS011;8530;49.540;8.576;2023-07-22T14:09:42;4.00;;;2.87;;
16826;SDS011;8530;49.540;8.576;2023-07-22T14:12:10;3.73;;;2.77;;
16826;SDS011;8530;49.540;8.576;2023-07-22T14:14:37;4.00;;;3.03;;
16826;SDS011;8530;49.540;8.576;2023-07-22T14:17:04;18.00;;;14.70;;
16826;SDS011;8530;49.540;8.576;2023-07-22T14:19:32;7.20;;;3.27;;
16826;SDS011;8530;49.540;8.576;2023-07-22T14:21:59;4.17;;;3.17;;
16826;SDS011;8530;49.540;8.576;2023-07-22T14:24:25;4.50;;;4.10;;
16826;SDS011;8530;49.540;8.576;2023-07-22T14:26:53;10.60;;;3.37;;
16826;SDS011;8530;49.540;8.576;2023-07-22T14:29:21;4.33;;;3.13;;
16826;SDS011;8530;49.540;8.576;2023-07-22T14:31:50;5.07;;;2.63;;
16826;SDS011;8530;49.540;8.576;2023-07-22T14:34:17;4.17;;;2.97;;
16826;SDS011;8530;49.540;8.576;2023-07-22T14:36:44;4.40;;;3.23;;
16826;SDS011;8530;49.540;8.576;2023-07-22T14:39:11;4.20;;;3.13;;
16826;SDS011;8530;49.540;8.576;2023-07-22T14:41:40;3.30;;;2.63;;
16826;SDS011;8530;49.540;8.576;2023-07-22T14:44:07;8.87;;;3.03;;
16826;SDS011;8530;49.540;8.576;2023-07-22T14:46:35;5.87;;;3.10;;
16826;SDS011;8530;49.540;8.576;2023-07-22T14:49:02;4.50;;;3.07;;
16826;SDS011;8530;49.540;8.576;2023-07-22T14:51:34;4.13;;;3.37;;
16826;SDS011;8530;49.540;8.576;2023-07-22T14:54:01;5.53;;;3.40;;
16826;SDS011;8530;49.540;8.576;2023-07-22T14:56:27;4.17;;;3.47;;
16826;SDS011;8530;49.540;8.576;2023-07-22T14:58:54;4.03;;;2.93;;
16826;SDS011;8530;49.540;8.576;2023-07-22T15:01:21;7.67;;;3.60;;
16826;SDS011;8530;49.540;8.576;2023-07-22T15:03:49;4.53;;;3.27;;
16826;SDS011;8530;49.540;8.576;2023-07-22T15:06:16;5.50;;;3.07;;